createdAt,value
2018-10-17T00:01:56.797Z,3.50
2018-10-17T00:04:25.873Z,4.20
2018-10-17T00:06:54.785Z,3.90
2018-10-17T00:09:24.066Z,3.50
2018-10-17T00:11:53.188Z,4.03
2018-10-17T00:14:22.214Z,4.17
2018-10-17T00:16:51.283Z,3.90
2018-10-17T00:19:20.396Z,5.13
2018-10-17T00:21:49.474Z,3.80
2018-10-17T00:24:18.654Z,3.70
2018-10-17T00:26:48.233Z,4.40
2018-10-17T00:29:17.548Z,4.83
2018-10-17T00:31:46.797Z,4.60
2018-10-17T00:34:15.912Z,5.47
2018-10-17T00:36:45.229Z,4.27
2018-10-17T00:39:14.356Z,4.50
2018-10-17T00:41:43.526Z,4.63
2018-10-17T00:44:12.626Z,4.77
2018-10-17T00:46:41.664Z,5.07
2018-10-17T00:49:10.603Z,5.07
2018-10-17T00:51:39.847Z,5.10
2018-10-17T00:54:08.948Z,5.50
2018-10-17T00:56:38.334Z,5.17
2018-10-17T00:59:12.399Z,4.97
2018-10-17T01:01:41.469Z,5.30
2018-10-17T01:04:10.816Z,6.60
2018-10-17T01:06:41.164Z,5.80
2018-10-17T01:09:13.305Z,6.27
2018-10-17T01:11:42.670Z,6.10
2018-10-17T01:14:12.044Z,6.53
2018-10-17T01:16:41.553Z,7.30
2018-10-17T01:19:10.658Z,7.10
2018-10-17T01:21:39.735Z,7.67
2018-10-17T01:24:08.875Z,8.13
2018-10-17T01:26:37.952Z,8.33
2018-10-17T01:29:07.224Z,8.93
2018-10-17T01:31:36.362Z,8.30
2018-10-17T01:34:05.333Z,9.67
2018-10-17T01:36:34.447Z,10.20
2018-10-17T01:39:04.888Z,10.27
2018-10-17T01:41:34.156Z,10.93
2018-10-17T01:44:03.189Z,11.13
2018-10-17T01:46:31.932Z,12.90
2018-10-17T01:49:01.049Z,10.73
2018-10-17T01:51:30.031Z,12.60
2018-10-17T01:53:59.327Z,12.37
2018-10-17T01:56:28.717Z,12.30
2018-10-17T01:58:57.779Z,12.50
2018-10-17T02:01:27.893Z,13.10
2018-10-17T02:03:56.896Z,14.10
2018-10-17T02:06:25.976Z,13.77
2018-10-17T02:08:55.112Z,14.03
2018-10-17T02:11:24.025Z,18.42
2018-10-17T02:13:53.074Z,14.50
2018-10-17T02:16:22.613Z,15.17
2018-10-17T02:18:51.541Z,14.97
2018-10-17T02:21:21.222Z,14.07
2018-10-17T02:23:50.703Z,17.23
2018-10-17T02:26:19.849Z,15.50
2018-10-17T02:28:49.120Z,14.57
2018-10-17T02:31:18.408Z,14.70
2018-10-17T02:33:47.648Z,14.20
2018-10-17T02:36:17.041Z,13.97
2018-10-17T02:38:46.327Z,14.47
2018-10-17T02:41:15.717Z,15.10
2018-10-17T02:43:45.204Z,14.83
2018-10-17T02:46:14.342Z,15.60
2018-10-17T02:48:43.521Z,14.60
2018-10-17T02:51:12.772Z,15.50
2018-10-17T02:53:41.830Z,16.73
2018-10-17T02:56:11.090Z,16.57
2018-10-17T02:58:40.174Z,15.83
2018-10-17T03:01:09.308Z,15.27
2018-10-17T03:03:38.442Z,14.70
2018-10-17T03:06:07.276Z,14.90
2018-10-17T03:08:36.622Z,15.27
2018-10-17T03:11:05.726Z,15.43
2018-10-17T03:13:34.723Z,15.53
2018-10-17T03:16:03.851Z,16.20
2018-10-17T03:18:32.872Z,17.00
2018-10-17T03:21:01.823Z,17.50
2018-10-17T03:23:30.962Z,15.73
2018-10-17T03:26:00.909Z,17.10
2018-10-17T03:28:30.192Z,18.17
2018-10-17T03:30:59.581Z,17.03
2018-10-17T03:33:28.799Z,17.93
2018-10-17T03:35:58.119Z,18.97
2018-10-17T03:38:27.389Z,18.57
2018-10-17T03:40:56.688Z,17.97
2018-10-17T03:43:25.554Z,18.77
2018-10-17T03:45:54.465Z,18.20
2018-10-17T03:48:24.120Z,17.33
2018-10-17T03:50:53.303Z,17.87
2018-10-17T03:53:22.504Z,19.20
2018-10-17T03:55:51.925Z,18.20
2018-10-17T03:58:20.903Z,18.93
2018-10-17T04:00:50.414Z,18.33
2018-10-17T04:03:20.183Z,18.03
2018-10-17T04:05:49.280Z,19.10
2018-10-17T04:08:19.330Z,18.87
2018-10-17T04:10:48.115Z,18.00
2018-10-17T04:13:17.136Z,18.23
2018-10-17T04:15:46.495Z,17.43
2018-10-17T04:18:15.614Z,18.60
2018-10-17T04:20:44.950Z,18.23
2018-10-17T04:23:14.211Z,19.53
2018-10-17T04:25:43.212Z,18.50
2018-10-17T04:28:12.475Z,17.60
2018-10-17T04:30:41.660Z,19.10
2018-10-17T04:33:10.675Z,19.73
2018-10-17T04:35:39.962Z,19.03
2018-10-17T04:38:09.281Z,16.57
2018-10-17T04:40:38.366Z,18.17
2018-10-17T04:43:07.721Z,17.23
2018-10-17T04:45:37.058Z,18.77
2018-10-17T04:48:06.284Z,16.47
2018-10-17T04:50:35.461Z,18.20
2018-10-17T04:53:04.798Z,18.70
2018-10-17T04:55:33.943Z,24.37
2018-10-17T04:58:02.917Z,20.67
2018-10-17T05:00:32.114Z,19.23
2018-10-17T05:03:01.229Z,19.40
2018-10-17T05:05:30.176Z,18.73
2018-10-17T05:07:59.333Z,18.67
2018-10-17T05:10:28.636Z,19.43
2018-10-17T05:12:57.581Z,20.00
2018-10-17T05:15:26.782Z,21.37
2018-10-17T05:17:56.017Z,20.57
2018-10-17T05:20:25.302Z,21.87
2018-10-17T05:22:54.335Z,21.90
2018-10-17T05:25:23.499Z,22.73
2018-10-17T05:27:52.808Z,22.03
2018-10-17T05:30:21.852Z,22.50
2018-10-17T05:32:51.090Z,21.87
2018-10-17T05:35:20.492Z,22.57
2018-10-17T05:37:49.680Z,21.53
2018-10-17T05:40:18.865Z,22.33
2018-10-17T05:42:48.191Z,21.47
2018-10-17T05:45:17.389Z,22.50
2018-10-17T05:47:46.631Z,22.67
2018-10-17T05:50:15.799Z,21.83
2018-10-17T05:52:44.866Z,23.37
2018-10-17T05:55:13.982Z,24.67
2018-10-17T05:57:43.497Z,22.27
2018-10-17T06:00:12.639Z,24.20
2018-10-17T06:02:41.810Z,25.57
2018-10-17T06:05:10.978Z,24.20
2018-10-17T06:07:40.262Z,28.33
2018-10-17T06:10:09.828Z,26.60
2018-10-17T06:12:39.142Z,26.90
2018-10-17T06:15:08.117Z,27.17
2018-10-17T06:17:37.103Z,26.67
2018-10-17T06:20:07.154Z,27.93
2018-10-17T06:22:36.209Z,27.73
2018-10-17T06:25:05.580Z,27.77
2018-10-17T06:27:35.670Z,28.23
2018-10-17T06:30:05.593Z,26.23
2018-10-17T06:32:34.720Z,28.70
2018-10-17T06:35:03.897Z,36.77
2018-10-17T06:37:32.977Z,30.70
2018-10-17T06:40:02.335Z,30.40
2018-10-17T06:42:31.429Z,29.73
2018-10-17T06:45:00.178Z,29.00
2018-10-17T06:47:29.463Z,30.17
2018-10-17T06:49:58.422Z,30.20
2018-10-17T06:52:27.494Z,31.00
2018-10-17T06:54:56.632Z,32.67
2018-10-17T06:57:25.820Z,31.87
2018-10-17T06:59:55.011Z,31.67
2018-10-17T07:02:24.240Z,30.60
2018-10-17T07:04:53.566Z,30.93
2018-10-17T07:07:23.117Z,31.47
2018-10-17T07:09:52.172Z,30.73
2018-10-17T07:12:21.328Z,30.20
2018-10-17T07:14:50.507Z,32.83
2018-10-17T07:17:19.368Z,31.03
2018-10-17T07:19:48.711Z,30.17
2018-10-17T07:22:17.916Z,34.03
2018-10-17T07:24:47.036Z,37.10
2018-10-17T07:27:16.150Z,30.53
2018-10-17T07:29:45.214Z,30.03
2018-10-17T07:32:14.179Z,32.80
2018-10-17T07:34:43.578Z,30.30
2018-10-17T07:37:12.584Z,32.33
2018-10-17T07:39:41.679Z,32.03
2018-10-17T07:42:11.053Z,30.70
2018-10-17T07:44:40.251Z,28.90
2018-10-17T07:47:10.279Z,32.60
2018-10-17T07:49:39.581Z,30.40
2018-10-17T07:52:08.477Z,31.27
2018-10-17T07:54:37.823Z,31.37
2018-10-17T07:57:06.740Z,32.83
2018-10-17T07:59:35.755Z,32.07
2018-10-17T08:02:05.158Z,33.27
2018-10-17T08:04:34.144Z,33.10
2018-10-17T08:07:03.635Z,32.77
2018-10-17T08:09:32.745Z,30.73
2018-10-17T08:12:02.040Z,32.30
2018-10-17T08:14:31.120Z,31.10
2018-10-17T08:17:00.633Z,31.23
2018-10-17T08:19:29.829Z,29.17
2018-10-17T08:21:59.009Z,30.10
2018-10-17T08:24:28.163Z,30.30
2018-10-17T08:26:58.042Z,30.07
2018-10-17T08:29:27.454Z,28.60
2018-10-17T08:31:56.499Z,28.03
2018-10-17T08:34:25.506Z,28.83
2018-10-17T08:36:54.813Z,28.57
2018-10-17T08:39:23.803Z,27.83
2018-10-17T08:41:53.033Z,27.23
2018-10-17T08:44:23.032Z,28.13
2018-10-17T08:46:52.219Z,26.33
2018-10-17T08:49:21.461Z,27.97
2018-10-17T08:51:50.620Z,33.13
2018-10-17T08:54:19.918Z,27.53
2018-10-17T08:56:49.629Z,27.27
2018-10-17T08:59:18.720Z,26.67
2018-10-17T09:01:47.713Z,25.67
2018-10-17T09:04:16.863Z,25.17
2018-10-17T09:06:45.818Z,22.83
2018-10-17T09:09:14.984Z,24.43
2018-10-17T09:11:44.294Z,24.80
2018-10-17T09:14:13.752Z,23.60
2018-10-17T09:16:43.077Z,24.40
2018-10-17T09:19:12.066Z,25.83
2018-10-17T09:21:41.485Z,25.13
2018-10-17T09:24:10.592Z,23.67
2018-10-17T09:26:39.787Z,22.83
2018-10-17T09:29:09.053Z,24.53
2018-10-17T09:31:38.191Z,22.23
2018-10-17T09:34:07.636Z,21.67
2018-10-17T09:36:36.872Z,22.70
2018-10-17T09:39:07.560Z,21.43
2018-10-17T09:41:36.701Z,22.20
2018-10-17T09:44:05.792Z,20.57
2018-10-17T09:46:34.999Z,21.50
2018-10-17T09:49:04.050Z,20.83
2018-10-17T09:51:33.482Z,21.37
2018-10-17T09:54:02.360Z,21.37
2018-10-17T09:56:31.712Z,20.90
2018-10-17T09:59:00.897Z,19.67
2018-10-17T10:01:35.155Z,20.13
2018-10-17T10:04:04.462Z,19.93
2018-10-17T10:06:33.491Z,20.63
2018-10-17T10:09:02.455Z,20.23
2018-10-17T10:11:31.396Z,21.17
2018-10-17T10:14:00.840Z,20.40
2018-10-17T10:16:29.991Z,20.23
2018-10-17T10:18:59.003Z,18.87
2018-10-17T10:21:29.063Z,19.90
2018-10-17T10:23:58.737Z,20.20
2018-10-17T10:26:27.911Z,18.83
2018-10-17T10:28:57.087Z,18.33
2018-10-17T10:31:26.990Z,18.67
2018-10-17T10:33:56.214Z,19.30
2018-10-17T10:36:25.574Z,18.70
2018-10-17T10:38:54.670Z,19.13
2018-10-17T10:41:23.683Z,18.90
2018-10-17T10:43:53.011Z,22.87
2018-10-17T10:46:22.390Z,19.10
2018-10-17T10:48:52.711Z,19.47
2018-10-17T10:51:21.963Z,17.20
2018-10-17T10:53:51.222Z,17.03
2018-10-17T10:56:20.530Z,18.13
2018-10-17T10:58:49.676Z,17.80
2018-10-17T11:01:18.571Z,18.47
2018-10-17T11:03:47.455Z,17.97
2018-10-17T11:06:16.652Z,18.87
2018-10-17T11:08:45.722Z,17.70
2018-10-17T11:11:14.962Z,18.13
2018-10-17T11:13:44.486Z,19.73
2018-10-17T11:16:13.738Z,19.67
2018-10-17T11:18:42.978Z,20.63
2018-10-17T11:21:12.170Z,19.90
2018-10-17T11:23:41.354Z,20.47
2018-10-17T11:26:10.391Z,20.77
2018-10-17T11:28:39.529Z,21.00
2018-10-17T11:31:08.933Z,20.80
2018-10-17T11:33:38.173Z,19.50
2018-10-17T11:36:07.076Z,20.80
2018-10-17T11:38:36.338Z,21.60
2018-10-17T11:41:05.485Z,21.03
2018-10-17T11:43:34.701Z,19.70
2018-10-17T11:46:03.934Z,18.50
2018-10-17T11:48:33.142Z,20.07
2018-10-17T11:51:02.384Z,19.17
2018-10-17T11:53:31.342Z,20.03
2018-10-17T11:56:00.399Z,19.10
2018-10-17T11:58:29.804Z,16.83
2018-10-17T12:00:58.978Z,18.27
2018-10-17T12:03:28.005Z,19.13
2018-10-17T12:05:57.464Z,19.20
2018-10-17T12:08:27.351Z,26.70
2018-10-17T12:10:56.303Z,20.43
2018-10-17T12:13:25.397Z,19.07
2018-10-17T12:15:54.647Z,18.23
2018-10-17T12:18:23.791Z,18.47
2018-10-17T12:20:53.239Z,17.77
2018-10-17T12:23:22.700Z,18.17
2018-10-17T12:25:51.792Z,15.80
2018-10-17T12:28:21.165Z,16.33
2018-10-17T12:30:50.288Z,16.90
2018-10-17T12:33:19.363Z,17.17
2018-10-17T12:35:48.389Z,16.87
2018-10-17T12:38:18.509Z,16.77
2018-10-17T12:40:47.772Z,16.33
2018-10-17T12:43:16.997Z,16.07
2018-10-17T12:45:46.219Z,17.20
2018-10-17T12:48:15.396Z,16.40
2018-10-17T12:50:44.426Z,17.57
2018-10-17T12:53:13.917Z,16.20
2018-10-17T12:55:42.880Z,17.07
2018-10-17T12:58:11.919Z,17.07
2018-10-17T13:00:41.311Z,18.23
2018-10-17T13:03:10.457Z,17.13
2018-10-17T13:05:39.858Z,16.83
2018-10-17T13:08:09.377Z,17.87
2018-10-17T13:10:38.448Z,16.70
2018-10-17T13:13:07.676Z,17.90
2018-10-17T13:15:37.066Z,16.33
2018-10-17T13:18:06.212Z,16.23
2018-10-17T13:20:34.994Z,17.40
2018-10-17T13:23:04.078Z,17.23
2018-10-17T13:25:33.072Z,15.47
2018-10-17T13:28:02.100Z,15.80
2018-10-17T13:30:31.200Z,15.10
2018-10-17T13:33:00.659Z,14.53
2018-10-17T13:35:29.896Z,14.93
2018-10-17T13:37:58.940Z,15.23
2018-10-17T13:40:28.048Z,15.50
2018-10-17T13:42:57.180Z,14.93
2018-10-17T13:45:26.213Z,15.63
2018-10-17T13:47:55.537Z,15.67
2018-10-17T13:50:24.484Z,14.87
2018-10-17T13:52:53.702Z,15.67
2018-10-17T13:55:22.933Z,16.17
2018-10-17T13:57:52.076Z,15.70
2018-10-17T14:00:20.961Z,15.83
2018-10-17T14:02:50.152Z,15.73
2018-10-17T14:05:19.255Z,16.27
2018-10-17T14:07:48.718Z,15.50
2018-10-17T14:10:18.300Z,16.47
2018-10-17T14:12:47.424Z,16.87
2018-10-17T14:15:16.611Z,15.40
2018-10-17T14:17:45.700Z,14.83
2018-10-17T14:20:14.735Z,14.63
2018-10-17T14:22:43.763Z,16.17
2018-10-17T14:25:12.791Z,15.87
2018-10-17T14:27:41.915Z,14.93
2018-10-17T14:30:10.915Z,15.50
2018-10-17T14:32:40.303Z,13.17
2018-10-17T14:35:10.843Z,15.30
2018-10-17T14:37:39.855Z,14.40
2018-10-17T14:40:09.414Z,14.47
2018-10-17T14:42:38.834Z,13.97
2018-10-17T14:45:09.325Z,16.30
2018-10-17T14:47:38.583Z,15.77
2018-10-17T14:50:07.670Z,16.20
2018-10-17T14:52:36.632Z,17.30
2018-10-17T14:55:06.740Z,15.00
2018-10-17T14:57:35.670Z,13.77
2018-10-17T15:00:05.163Z,14.40
2018-10-17T15:02:34.246Z,17.03
2018-10-17T15:05:03.567Z,16.77
2018-10-17T15:07:33.417Z,16.47
2018-10-17T15:10:02.647Z,17.50
2018-10-17T15:12:31.693Z,17.20
2018-10-17T15:15:01.011Z,16.80
2018-10-17T15:17:30.370Z,15.80
2018-10-17T15:19:59.639Z,17.20
2018-10-17T15:22:28.833Z,16.83
2018-10-17T15:24:57.891Z,17.23
2018-10-17T15:27:27.224Z,18.23
2018-10-17T15:29:56.357Z,18.43
2018-10-17T15:32:25.678Z,19.03
2018-10-17T15:34:54.704Z,18.50
2018-10-17T15:37:23.781Z,19.00
2018-10-17T15:39:52.819Z,19.67
2018-10-17T15:42:22.000Z,19.70
2018-10-17T15:44:51.123Z,19.80
2018-10-17T15:47:20.302Z,20.80
2018-10-17T15:49:49.489Z,20.47
2018-10-17T15:52:18.488Z,20.43
2018-10-17T15:54:47.862Z,21.00
2018-10-17T15:57:17.097Z,20.40
2018-10-17T15:59:46.617Z,20.63
2018-10-17T16:02:15.895Z,21.83
2018-10-17T16:04:44.728Z,21.63
2018-10-17T16:07:13.692Z,23.13
2018-10-17T16:09:43.651Z,21.80
2018-10-17T16:12:12.995Z,21.60
2018-10-17T16:14:42.317Z,21.03
2018-10-17T16:17:11.529Z,20.67
2018-10-17T16:19:40.730Z,20.53
2018-10-17T16:22:09.775Z,22.20
2018-10-17T16:24:38.980Z,21.53
2018-10-17T16:27:08.085Z,22.10
2018-10-17T16:29:37.434Z,23.10
2018-10-17T16:32:07.144Z,22.53
2018-10-17T16:34:36.219Z,23.13
2018-10-17T16:37:05.710Z,21.70
2018-10-17T16:39:34.794Z,23.00
2018-10-17T16:42:04.152Z,23.00
2018-10-17T16:44:33.265Z,22.00
2018-10-17T16:47:02.558Z,22.43
2018-10-17T16:49:31.742Z,22.13
2018-10-17T16:52:00.913Z,20.10
2018-10-17T16:54:30.192Z,21.30
2018-10-17T16:56:59.556Z,20.40
2018-10-17T16:59:28.761Z,20.30
2018-10-17T17:01:57.941Z,19.80
2018-10-17T17:04:26.917Z,18.23
2018-10-17T17:06:56.019Z,18.37
2018-10-17T17:09:25.154Z,18.93
2018-10-17T17:11:54.632Z,19.47
2018-10-17T17:14:23.973Z,17.77
2018-10-17T17:16:54.280Z,18.37
2018-10-17T17:19:24.060Z,18.30
2018-10-17T17:21:53.380Z,16.87
2018-10-17T17:24:22.591Z,17.80
2018-10-17T17:26:51.717Z,17.83
2018-10-17T17:29:21.063Z,18.27
2018-10-17T17:31:50.471Z,16.37
2018-10-17T17:34:19.537Z,17.40
2018-10-17T17:36:48.673Z,17.70
2018-10-17T17:39:17.935Z,16.77
2018-10-17T17:41:47.199Z,16.90
2018-10-17T17:44:16.228Z,17.20
2018-10-17T17:46:45.629Z,17.50
2018-10-17T17:49:14.684Z,16.73
2018-10-17T17:51:43.648Z,18.37
2018-10-17T17:54:12.893Z,18.07
2018-10-17T17:56:41.936Z,17.90
2018-10-17T17:59:10.942Z,17.57
2018-10-17T18:01:39.798Z,16.33
2018-10-17T18:04:08.904Z,16.37
2018-10-17T18:06:37.891Z,14.63
2018-10-17T18:09:08.825Z,14.83
2018-10-17T18:11:37.878Z,14.43
2018-10-17T18:14:07.009Z,15.97
2018-10-17T18:16:36.010Z,15.37
2018-10-17T18:19:05.128Z,15.07
2018-10-17T18:21:34.210Z,14.23
2018-10-17T18:24:03.210Z,14.50
2018-10-17T18:26:32.348Z,13.53
2018-10-17T18:29:01.135Z,14.10
2018-10-17T18:31:30.185Z,14.17
2018-10-17T18:33:59.611Z,13.47
2018-10-17T18:36:28.797Z,13.97
2018-10-17T18:38:57.925Z,12.60
2018-10-17T18:41:27.021Z,13.23
2018-10-17T18:43:56.219Z,13.13
2018-10-17T18:46:25.346Z,12.07
2018-10-17T18:48:54.173Z,15.65
2018-10-17T18:51:23.273Z,13.57
2018-10-17T18:53:52.759Z,13.13
2018-10-17T18:56:21.814Z,11.67
2018-10-17T18:58:51.029Z,12.80
2018-10-17T19:01:20.188Z,12.20
2018-10-17T19:03:49.644Z,12.27
2018-10-17T19:06:18.824Z,12.27
2018-10-17T19:08:48.114Z,12.20
2018-10-17T19:11:17.159Z,11.40
2018-10-17T19:13:46.225Z,11.60
2018-10-17T19:16:15.302Z,11.20
2018-10-17T19:18:44.403Z,11.30
2018-10-17T19:21:13.785Z,11.47
2018-10-17T19:23:42.903Z,11.30
2018-10-17T19:26:11.839Z,11.73
2018-10-17T19:28:41.023Z,10.50
2018-10-17T19:31:10.234Z,9.97
2018-10-17T19:33:39.545Z,9.87
2018-10-17T19:36:08.774Z,10.33
2018-10-17T19:38:37.874Z,10.77
2018-10-17T19:41:07.284Z,9.90
2018-10-17T19:43:36.383Z,10.63
2018-10-17T19:46:05.650Z,10.03
2018-10-17T19:48:34.814Z,9.77
2018-10-17T19:51:04.053Z,9.73
2018-10-17T19:53:33.177Z,9.93
2018-10-17T19:56:02.359Z,10.57
2018-10-17T19:58:31.425Z,9.70
2018-10-17T20:01:00.748Z,10.00
2018-10-17T20:03:29.715Z,10.00
2018-10-17T20:05:58.640Z,9.90
2018-10-17T20:08:27.639Z,9.63
2018-10-17T20:10:56.561Z,10.33
2018-10-17T20:13:25.678Z,9.60
2018-10-17T20:15:54.606Z,10.40
2018-10-17T20:18:24.324Z,10.10
2018-10-17T20:20:53.539Z,9.27
2018-10-17T20:23:22.765Z,10.03
2018-10-17T20:25:51.907Z,9.97
2018-10-17T20:28:21.015Z,9.90
2018-10-17T20:30:49.976Z,10.00
2018-10-17T20:33:18.996Z,9.93
2018-10-17T20:35:48.122Z,9.73
2018-10-17T20:38:17.275Z,10.30
2018-10-17T20:40:46.564Z,9.47
2018-10-17T20:43:16.359Z,10.30
2018-10-17T20:45:45.593Z,9.37
2018-10-17T20:48:14.527Z,10.03
2018-10-17T20:50:43.673Z,10.03
2018-10-17T20:53:12.736Z,9.87
2018-10-17T20:55:42.292Z,10.33
2018-10-17T20:58:11.270Z,9.80
2018-10-17T21:00:40.146Z,10.20
2018-10-17T21:03:08.969Z,10.53
2018-10-17T21:05:38.134Z,9.20
2018-10-17T21:08:07.295Z,10.03
2018-10-17T21:10:36.323Z,9.77
2018-10-17T21:13:05.663Z,9.83
2018-10-17T21:15:35.016Z,9.80
2018-10-17T21:18:03.878Z,10.20
2018-10-17T21:20:32.756Z,9.97
2018-10-17T21:23:01.717Z,9.70
2018-10-17T21:25:30.868Z,10.30
2018-10-17T21:27:59.916Z,10.63
2018-10-17T21:30:28.965Z,9.87
2018-10-17T21:32:58.251Z,10.30
2018-10-17T21:35:27.275Z,10.30
2018-10-17T21:37:56.362Z,10.40
2018-10-17T21:40:25.753Z,10.60
2018-10-17T21:42:54.842Z,11.00
2018-10-17T21:45:24.032Z,9.53
2018-10-17T21:47:53.165Z,10.83
2018-10-17T21:50:22.108Z,9.70
2018-10-17T21:52:51.122Z,10.47
2018-10-17T21:55:20.314Z,10.30
2018-10-17T21:57:49.612Z,10.67
2018-10-17T22:00:18.598Z,9.97
2018-10-17T22:02:48.624Z,10.43
2018-10-17T22:05:17.405Z,10.90
2018-10-17T22:07:46.555Z,10.73
2018-10-17T22:10:15.522Z,10.00
2018-10-17T22:12:44.605Z,10.40
2018-10-17T22:15:13.443Z,10.53
2018-10-17T22:17:42.540Z,10.63
2018-10-17T22:20:11.626Z,10.47
2018-10-17T22:22:40.666Z,10.33
2018-10-17T22:25:09.685Z,10.73
2018-10-17T22:27:38.742Z,11.10
2018-10-17T22:30:08.025Z,10.47
2018-10-17T22:32:37.195Z,10.30
2018-10-17T22:35:06.217Z,11.63
2018-10-17T22:37:35.132Z,10.90
2018-10-17T22:40:04.133Z,11.23
2018-10-17T22:42:33.352Z,11.10
2018-10-17T22:45:02.234Z,11.50
2018-10-17T22:47:31.306Z,11.20
2018-10-17T22:50:00.437Z,11.30
2018-10-17T22:52:29.509Z,10.93
2018-10-17T22:54:58.691Z,11.83
2018-10-17T22:57:27.576Z,10.83
2018-10-17T22:59:56.362Z,11.63
2018-10-17T23:02:25.413Z,12.27
2018-10-17T23:04:54.616Z,11.20
2018-10-17T23:07:23.596Z,11.40
2018-10-17T23:09:52.536Z,11.07
2018-10-17T23:12:21.593Z,11.87
2018-10-17T23:14:51.046Z,11.70
2018-10-17T23:17:19.932Z,10.93
2018-10-17T23:19:49.033Z,10.97
2018-10-17T23:22:18.419Z,11.53
2018-10-17T23:24:47.267Z,11.80
2018-10-17T23:27:16.317Z,13.70
2018-10-17T23:29:45.477Z,12.17
2018-10-17T23:32:14.622Z,11.63
2018-10-17T23:34:43.894Z,11.07
2018-10-17T23:37:13.324Z,11.60
2018-10-17T23:39:42.993Z,11.40
2018-10-17T23:42:12.236Z,11.50
2018-10-17T23:44:41.235Z,11.20
2018-10-17T23:47:11.497Z,11.80
2018-10-17T23:49:40.465Z,10.83
2018-10-17T23:52:09.504Z,12.03
2018-10-17T23:54:38.597Z,10.50
2018-10-17T23:57:07.606Z,11.33
2018-10-17T23:59:36.573Z,12.33
